sensor_id;sensor_type;location;lat;lon;timestamp;P1;durP1;ratioP1;P2;durP2;ratioP2
18336;SDS011;9294;51.106;7.028;2023-02-27T00:01:29;2.22;;;2.00;;
18336;SDS011;9294;51.106;7.028;2023-02-27T00:03:57;1.70;;;1.70;;
18336;SDS011;9294;51.106;7.028;2023-02-27T00:06:24;2.20;;;2.10;;
18336;SDS011;9294;51.106;7.028;2023-02-27T00:08:50;2.10;;;2.00;;
18336;SDS011;9294;51.106;7.028;2023-02-27T00:11:17;2.38;;;2.28;;
18336;SDS011;9294;51.106;7.028;2023-02-27T00:13:45;2.10;;;2.00;;
18336;SDS011;9294;51.106;7.028;2023-02-27T00:16:12;2.13;;;2.03;;
18336;SDS011;9294;51.106;7.028;2023-02-27T00:18:39;2.00;;;1.90;;
18336;SDS011;9294;51.106;7.028;2023-02-27T00:21:05;2.58;;;2.38;;
18336;SDS011;9294;51.106;7.028;2023-02-27T00:23:32;2.08;;;1.98;;
18336;SDS011;9294;51.106;7.028;2023-02-27T00:25:59;1.80;;;1.70;;
18336;SDS011;9294;51.106;7.028;2023-02-27T00:28:26;2.10;;;1.90;;
18336;SDS011;9294;51.106;7.028;2023-02-27T00:30:55;2.40;;;2.30;;
18336;SDS011;9294;51.106;7.028;2023-02-27T00:33:21;2.05;;;1.95;;
18336;SDS011;9294;51.106;7.028;2023-02-27T00:35:53;2.28;;;2.17;;
18336;SDS011;9294;51.106;7.028;2023-02-27T00:38:20;1.88;;;1.77;;
18336;SDS011;9294;51.106;7.028;2023-02-27T00:40:47;2.40;;;2.30;;
18336;SDS011;9294;51.106;7.028;2023-02-27T00:43:14;2.03;;;1.92;;
18336;SDS011;9294;51.106;7.028;2023-02-27T00:45:41;2.20;;;2.10;;
18336;SDS011;9294;51.106;7.028;2023-02-27T00:48:09;2.00;;;1.90;;
18336;SDS011;9294;51.106;7.028;2023-02-27T00:50:36;1.88;;;1.77;;
18336;SDS011;9294;51.106;7.028;2023-02-27T00:53:03;1.48;;;1.45;;
18336;SDS011;9294;51.106;7.028;2023-02-27T00:55:30;2.10;;;2.00;;
18336;SDS011;9294;51.106;7.028;2023-02-27T00:57:56;1.67;;;1.60;;
18336;SDS011;9294;51.106;7.028;2023-02-27T01:00:23;1.90;;;1.80;;
18336;SDS011;9294;51.106;7.028;2023-02-27T01:02:50;1.88;;;1.88;;
18336;SDS011;9294;51.106;7.028;2023-02-27T01:05:18;2.13;;;2.03;;
18336;SDS011;9294;51.106;7.028;2023-02-27T01:07:45;1.77;;;1.77;;
18336;SDS011;9294;51.106;7.028;2023-02-27T01:10:12;1.98;;;1.80;;
18336;SDS011;9294;51.106;7.028;2023-02-27T01:12:39;2.00;;;1.88;;
18336;SDS011;9294;51.106;7.028;2023-02-27T01:15:07;2.17;;;2.05;;
18336;SDS011;9294;51.106;7.028;2023-02-27T01:17:35;1.90;;;1.80;;
18336;SDS011;9294;51.106;7.028;2023-02-27T01:20:02;1.67;;;1.67;;
18336;SDS011;9294;51.106;7.028;2023-02-27T01:22:31;1.75;;;1.75;;
18336;SDS011;9294;51.106;7.028;2023-02-27T01:24:58;2.03;;;1.92;;
18336;SDS011;9294;51.106;7.028;2023-02-27T01:27:25;2.22;;;2.13;;
18336;SDS011;9294;51.106;7.028;2023-02-27T01:29:51;1.80;;;1.70;;
18336;SDS011;9294;51.106;7.028;2023-02-27T01:32:18;2.05;;;1.95;;
18336;SDS011;9294;51.106;7.028;2023-02-27T01:34:45;1.80;;;1.73;;
18336;SDS011;9294;51.106;7.028;2023-02-27T01:37:11;1.98;;;1.92;;
18336;SDS011;9294;51.106;7.028;2023-02-27T01:39:40;1.77;;;1.67;;
18336;SDS011;9294;51.106;7.028;2023-02-27T01:42:09;2.00;;;1.90;;
18336;SDS011;9294;51.106;7.028;2023-02-27T01:47:44;2.05;;;1.90;;
18336;SDS011;9294;51.106;7.028;2023-02-27T01:50:14;1.92;;;1.80;;
18336;SDS011;9294;51.106;7.028;2023-02-27T01:52:43;1.52;;;1.52;;
18336;SDS011;9294;51.106;7.028;2023-02-27T01:55:16;1.70;;;1.70;;
18336;SDS011;9294;51.106;7.028;2023-02-27T01:57:43;1.60;;;1.60;;
18336;SDS011;9294;51.106;7.028;2023-02-27T02:00:13;1.75;;;1.67;;
18336;SDS011;9294;51.106;7.028;2023-02-27T02:02:41;1.60;;;1.60;;
18336;SDS011;9294;51.106;7.028;2023-02-27T02:05:11;2.03;;;1.92;;
18336;SDS011;9294;51.106;7.028;2023-02-27T02:07:39;1.98;;;1.88;;
18336;SDS011;9294;51.106;7.028;2023-02-27T02:10:09;1.88;;;1.80;;
18336;SDS011;9294;51.106;7.028;2023-02-27T02:12:39;2.05;;;1.95;;
18336;SDS011;9294;51.106;7.028;2023-02-27T02:15:06;1.85;;;1.83;;
18336;SDS011;9294;51.106;7.028;2023-02-27T02:17:36;1.75;;;1.65;;
18336;SDS011;9294;51.106;7.028;2023-02-27T02:26:47;1.40;;;1.40;;
18336;SDS011;9294;51.106;7.028;2023-02-27T02:35:33;2.00;;;1.90;;
18336;SDS011;9294;51.106;7.028;2023-02-27T02:41:26;1.60;;;1.50;;
18336;SDS011;9294;51.106;7.028;2023-02-27T02:44:06;1.67;;;1.58;;
18336;SDS011;9294;51.106;7.028;2023-02-27T02:46:44;1.60;;;1.50;;
18336;SDS011;9294;51.106;7.028;2023-02-27T02:49:18;1.52;;;1.52;;
18336;SDS011;9294;51.106;7.028;2023-02-27T02:51:54;1.83;;;1.73;;
18336;SDS011;9294;51.106;7.028;2023-02-27T02:54:29;1.88;;;1.77;;
18336;SDS011;9294;51.106;7.028;2023-02-27T02:57:05;1.40;;;1.40;;
18336;SDS011;9294;51.106;7.028;2023-02-27T02:59:37;1.73;;;1.63;;
18336;SDS011;9294;51.106;7.028;2023-02-27T03:02:10;1.92;;;1.83;;
18336;SDS011;9294;51.106;7.028;2023-02-27T03:04:40;1.60;;;1.50;;
18336;SDS011;9294;51.106;7.028;2023-02-27T03:07:20;1.85;;;1.75;;
18336;SDS011;9294;51.106;7.028;2023-02-27T03:09:54;1.42;;;1.42;;
18336;SDS011;9294;51.106;7.028;2023-02-27T03:12:25;2.20;;;2.10;;
18336;SDS011;9294;51.106;7.028;2023-02-27T03:14:56;1.77;;;1.67;;
18336;SDS011;9294;51.106;7.028;2023-02-27T03:17:28;1.38;;;1.38;;
18336;SDS011;9294;51.106;7.028;2023-02-27T03:20:05;1.80;;;1.70;;
18336;SDS011;9294;51.106;7.028;2023-02-27T03:22:36;1.58;;;1.58;;
18336;SDS011;9294;51.106;7.028;2023-02-27T03:25:08;1.70;;;1.60;;
18336;SDS011;9294;51.106;7.028;2023-02-27T03:27:39;1.77;;;1.70;;
18336;SDS011;9294;51.106;7.028;2023-02-27T03:30:09;1.75;;;1.65;;
18336;SDS011;9294;51.106;7.028;2023-02-27T03:32:42;1.77;;;1.67;;
18336;SDS011;9294;51.106;7.028;2023-02-27T03:35:14;1.52;;;1.52;;
18336;SDS011;9294;51.106;7.028;2023-02-27T03:37:44;1.60;;;1.50;;
18336;SDS011;9294;51.106;7.028;2023-02-27T03:40:24;1.50;;;1.40;;
18336;SDS011;9294;51.106;7.028;2023-02-27T03:42:56;1.50;;;1.50;;
18336;SDS011;9294;51.106;7.028;2023-02-27T03:45:31;1.52;;;1.52;;
18336;SDS011;9294;51.106;7.028;2023-02-27T03:48:02;1.60;;;1.60;;
18336;SDS011;9294;51.106;7.028;2023-02-27T03:50:30;1.90;;;1.90;;
18336;SDS011;9294;51.106;7.028;2023-02-27T03:52:57;1.70;;;1.70;;
18336;SDS011;9294;51.106;7.028;2023-02-27T03:55:27;1.42;;;1.42;;
18336;SDS011;9294;51.106;7.028;2023-02-27T03:57:58;1.70;;;1.60;;
18336;SDS011;9294;51.106;7.028;2023-02-27T04:00:25;1.95;;;1.85;;
18336;SDS011;9294;51.106;7.028;2023-02-27T04:02:55;1.50;;;1.50;;
18336;SDS011;9294;51.106;7.028;2023-02-27T04:05:24;1.75;;;1.70;;
18336;SDS011;9294;51.106;7.028;2023-02-27T04:07:56;1.65;;;1.55;;
18336;SDS011;9294;51.106;7.028;2023-02-27T04:10:42;1.95;;;1.80;;
18336;SDS011;9294;51.106;7.028;2023-02-27T04:13:17;1.80;;;1.70;;
18336;SDS011;9294;51.106;7.028;2023-02-27T04:19:15;1.40;;;1.40;;
18336;SDS011;9294;51.106;7.028;2023-02-27T04:21:56;1.65;;;1.60;;
18336;SDS011;9294;51.106;7.028;2023-02-27T04:24:33;1.65;;;1.60;;
18336;SDS011;9294;51.106;7.028;2023-02-27T04:27:07;1.48;;;1.48;;
18336;SDS011;9294;51.106;7.028;2023-02-27T04:29:44;1.40;;;1.40;;
18336;SDS011;9294;51.106;7.028;2023-02-27T04:32:20;1.60;;;1.52;;
18336;SDS011;9294;51.106;7.028;2023-02-27T04:34:54;1.77;;;1.77;;
18336;SDS011;9294;51.106;7.028;2023-02-27T04:37:25;1.67;;;1.60;;
18336;SDS011;9294;51.106;7.028;2023-02-27T04:39:56;1.75;;;1.73;;
18336;SDS011;9294;51.106;7.028;2023-02-27T04:42:28;1.67;;;1.58;;
18336;SDS011;9294;51.106;7.028;2023-02-27T04:44:57;1.67;;;1.60;;
18336;SDS011;9294;51.106;7.028;2023-02-27T04:47:29;1.50;;;1.50;;
18336;SDS011;9294;51.106;7.028;2023-02-27T04:49:59;1.52;;;1.52;;
18336;SDS011;9294;51.106;7.028;2023-02-27T04:52:30;1.10;;;1.10;;
18336;SDS011;9294;51.106;7.028;2023-02-27T04:55:02;1.75;;;1.73;;
18336;SDS011;9294;51.106;7.028;2023-02-27T04:57:34;1.40;;;1.40;;
18336;SDS011;9294;51.106;7.028;2023-02-27T05:00:06;1.65;;;1.65;;
18336;SDS011;9294;51.106;7.028;2023-02-27T05:02:38;1.38;;;1.30;;
18336;SDS011;9294;51.106;7.028;2023-02-27T05:05:08;1.58;;;1.58;;
18336;SDS011;9294;51.106;7.028;2023-02-27T05:07:40;1.38;;;1.38;;
18336;SDS011;9294;51.106;7.028;2023-02-27T05:10:12;1.30;;;1.30;;
18336;SDS011;9294;51.106;7.028;2023-02-27T05:12:46;1.55;;;1.50;;
18336;SDS011;9294;51.106;7.028;2023-02-27T05:15:17;1.20;;;1.20;;
18336;SDS011;9294;51.106;7.028;2023-02-27T05:17:51;1.58;;;1.55;;
18336;SDS011;9294;51.106;7.028;2023-02-27T05:20:24;1.73;;;1.67;;
18336;SDS011;9294;51.106;7.028;2023-02-27T05:22:58;1.10;;;1.10;;
18336;SDS011;9294;51.106;7.028;2023-02-27T05:25:32;1.40;;;1.40;;
18336;SDS011;9294;51.106;7.028;2023-02-27T05:28:05;1.63;;;1.52;;
18336;SDS011;9294;51.106;7.028;2023-02-27T05:30:37;1.40;;;1.40;;
18336;SDS011;9294;51.106;7.028;2023-02-27T05:33:09;1.70;;;1.60;;
18336;SDS011;9294;51.106;7.028;2023-02-27T05:35:42;1.50;;;1.50;;
18336;SDS011;9294;51.106;7.028;2023-02-27T05:38:13;1.20;;;1.20;;
18336;SDS011;9294;51.106;7.028;2023-02-27T05:40:46;1.30;;;1.30;;
18336;SDS011;9294;51.106;7.028;2023-02-27T05:43:17;1.27;;;1.27;;
18336;SDS011;9294;51.106;7.028;2023-02-27T05:45:48;1.42;;;1.42;;
18336;SDS011;9294;51.106;7.028;2023-02-27T05:48:19;1.40;;;1.40;;
18336;SDS011;9294;51.106;7.028;2023-02-27T05:50:49;1.20;;;1.20;;
18336;SDS011;9294;51.106;7.028;2023-02-27T05:53:18;1.40;;;1.40;;
18336;SDS011;9294;51.106;7.028;2023-02-27T05:55:47;1.27;;;1.27;;
18336;SDS011;9294;51.106;7.028;2023-02-27T05:58:20;1.10;;;1.10;;
18336;SDS011;9294;51.106;7.028;2023-02-27T06:00:52;1.50;;;1.50;;
18336;SDS011;9294;51.106;7.028;2023-02-27T06:03:22;1.08;;;1.08;;
18336;SDS011;9294;51.106;7.028;2023-02-27T06:05:50;1.33;;;1.33;;
18336;SDS011;9294;51.106;7.028;2023-02-27T06:08:18;1.30;;;1.30;;
18336;SDS011;9294;51.106;7.028;2023-02-27T06:10:45;1.50;;;1.50;;
18336;SDS011;9294;51.106;7.028;2023-02-27T06:13:13;1.58;;;1.58;;
18336;SDS011;9294;51.106;7.028;2023-02-27T06:15:42;1.50;;;1.50;;
18336;SDS011;9294;51.106;7.028;2023-02-27T06:18:09;1.50;;;1.50;;
18336;SDS011;9294;51.106;7.028;2023-02-27T06:20:36;1.52;;;1.42;;
18336;SDS011;9294;51.106;7.028;2023-02-27T06:23:03;1.30;;;1.30;;
18336;SDS011;9294;51.106;7.028;2023-02-27T06:25:30;2.92;;;1.42;;
18336;SDS011;9294;51.106;7.028;2023-02-27T06:27:57;5.75;;;1.80;;
18336;SDS011;9294;51.106;7.028;2023-02-27T06:30:24;3.72;;;1.50;;
18336;SDS011;9294;51.106;7.028;2023-02-27T06:32:52;2.50;;;1.90;;
18336;SDS011;9294;51.106;7.028;2023-02-27T06:35:19;4.18;;;1.63;;
18336;SDS011;9294;51.106;7.028;2023-02-27T06:37:46;3.28;;;2.00;;
18336;SDS011;9294;51.106;7.028;2023-02-27T06:40:13;1.80;;;1.60;;
18336;SDS011;9294;51.106;7.028;2023-02-27T06:42:40;1.65;;;1.60;;
18336;SDS011;9294;51.106;7.028;2023-02-27T06:45:08;2.75;;;1.63;;
18336;SDS011;9294;51.106;7.028;2023-02-27T06:47:36;2.60;;;1.70;;
18336;SDS011;9294;51.106;7.028;2023-02-27T06:50:05;1.80;;;1.48;;
18336;SDS011;9294;51.106;7.028;2023-02-27T06:52:34;8.65;;;2.08;;
18336;SDS011;9294;51.106;7.028;2023-02-27T06:55:00;2.03;;;1.75;;
18336;SDS011;9294;51.106;7.028;2023-02-27T06:57:28;3.08;;;1.60;;
18336;SDS011;9294;51.106;7.028;2023-02-27T06:59:55;1.50;;;1.40;;
18336;SDS011;9294;51.106;7.028;2023-02-27T07:02:22;3.17;;;1.55;;
18336;SDS011;9294;51.106;7.028;2023-02-27T07:04:49;1.40;;;1.40;;
18336;SDS011;9294;51.106;7.028;2023-02-27T07:07:18;1.50;;;1.40;;
18336;SDS011;9294;51.106;7.028;2023-02-27T07:09:44;1.60;;;1.50;;
18336;SDS011;9294;51.106;7.028;2023-02-27T07:12:12;1.58;;;1.52;;
18336;SDS011;9294;51.106;7.028;2023-02-27T07:14:39;1.38;;;1.35;;
18336;SDS011;9294;51.106;7.028;2023-02-27T07:17:06;1.63;;;1.52;;
18336;SDS011;9294;51.106;7.028;2023-02-27T07:19:33;6.88;;;2.10;;
18336;SDS011;9294;51.106;7.028;2023-02-27T07:22:01;1.33;;;1.30;;
18336;SDS011;9294;51.106;7.028;2023-02-27T07:24:29;1.63;;;1.38;;
18336;SDS011;9294;51.106;7.028;2023-02-27T07:26:56;1.77;;;1.67;;
18336;SDS011;9294;51.106;7.028;2023-02-27T07:29:23;1.42;;;1.30;;
18336;SDS011;9294;51.106;7.028;2023-02-27T07:31:49;4.22;;;1.83;;
18336;SDS011;9294;51.106;7.028;2023-02-27T07:34:16;1.73;;;1.63;;
18336;SDS011;9294;51.106;7.028;2023-02-27T07:36:43;1.60;;;1.50;;
18336;SDS011;9294;51.106;7.028;2023-02-27T07:39:10;2.05;;;1.63;;
18336;SDS011;9294;51.106;7.028;2023-02-27T07:41:39;1.60;;;1.50;;
18336;SDS011;9294;51.106;7.028;2023-02-27T07:44:06;2.78;;;1.50;;
18336;SDS011;9294;51.106;7.028;2023-02-27T07:46:32;1.42;;;1.33;;
18336;SDS011;9294;51.106;7.028;2023-02-27T07:48:59;1.77;;;1.67;;
18336;SDS011;9294;51.106;7.028;2023-02-27T07:51:26;3.40;;;1.80;;
18336;SDS011;9294;51.106;7.028;2023-02-27T07:53:54;1.58;;;1.48;;
18336;SDS011;9294;51.106;7.028;2023-02-27T07:56:22;5.20;;;1.50;;
18336;SDS011;9294;51.106;7.028;2023-02-27T07:58:50;1.40;;;1.30;;
18336;SDS011;9294;51.106;7.028;2023-02-27T08:01:17;3.03;;;1.33;;
18336;SDS011;9294;51.106;7.028;2023-02-27T08:03:43;2.20;;;1.70;;
18336;SDS011;9294;51.106;7.028;2023-02-27T08:06:10;1.70;;;1.58;;
18336;SDS011;9294;51.106;7.028;2023-02-27T08:08:37;2.38;;;1.38;;
18336;SDS011;9294;51.106;7.028;2023-02-27T08:11:04;3.90;;;1.80;;
18336;SDS011;9294;51.106;7.028;2023-02-27T08:13:31;1.33;;;1.20;;
18336;SDS011;9294;51.106;7.028;2023-02-27T08:15:59;1.50;;;1.50;;
18336;SDS011;9294;51.106;7.028;2023-02-27T08:18:25;2.95;;;1.40;;
18336;SDS011;9294;51.106;7.028;2023-02-27T08:20:53;1.75;;;1.42;;
18336;SDS011;9294;51.106;7.028;2023-02-27T08:23:20;1.40;;;1.30;;
18336;SDS011;9294;51.106;7.028;2023-02-27T08:25:47;2.03;;;1.50;;
18336;SDS011;9294;51.106;7.028;2023-02-27T08:28:14;1.95;;;1.77;;
18336;SDS011;9294;51.106;7.028;2023-02-27T08:30:42;2.10;;;1.58;;
18336;SDS011;9294;51.106;7.028;2023-02-27T08:33:10;1.48;;;1.33;;
18336;SDS011;9294;51.106;7.028;2023-02-27T08:35:37;1.92;;;1.80;;
18336;SDS011;9294;51.106;7.028;2023-02-27T08:38:03;2.22;;;1.40;;
18336;SDS011;9294;51.106;7.028;2023-02-27T08:40:30;1.77;;;1.60;;
18336;SDS011;9294;51.106;7.028;2023-02-27T08:42:57;2.75;;;2.15;;
18336;SDS011;9294;51.106;7.028;2023-02-27T08:45:24;2.55;;;1.52;;
18336;SDS011;9294;51.106;7.028;2023-02-27T08:47:50;1.60;;;1.50;;
18336;SDS011;9294;51.106;7.028;2023-02-27T08:50:18;1.77;;;1.63;;
18336;SDS011;9294;51.106;7.028;2023-02-27T08:52:45;5.13;;;1.67;;
18336;SDS011;9294;51.106;7.028;2023-02-27T08:55:13;2.33;;;1.40;;
18336;SDS011;9294;51.106;7.028;2023-02-27T08:57:40;3.47;;;1.48;;
18336;SDS011;9294;51.106;7.028;2023-02-27T09:00:07;1.70;;;1.60;;
18336;SDS011;9294;51.106;7.028;2023-02-27T09:02:38;2.00;;;1.73;;
18336;SDS011;9294;51.106;7.028;2023-02-27T09:05:05;3.78;;;2.00;;
18336;SDS011;9294;51.106;7.028;2023-02-27T09:07:33;9.15;;;1.98;;
18336;SDS011;9294;51.106;7.028;2023-02-27T09:10:00;2.55;;;1.60;;
18336;SDS011;9294;51.106;7.028;2023-02-27T09:12:27;1.60;;;1.50;;
18336;SDS011;9294;51.106;7.028;2023-02-27T09:14:53;1.85;;;1.73;;
18336;SDS011;9294;51.106;7.028;2023-02-27T09:17:20;1.88;;;1.60;;
18336;SDS011;9294;51.106;7.028;2023-02-27T09:19:47;4.07;;;1.60;;
18336;SDS011;9294;51.106;7.028;2023-02-27T09:22:15;3.15;;;1.58;;
18336;SDS011;9294;51.106;7.028;2023-02-27T09:24:43;3.05;;;1.50;;
18336;SDS011;9294;51.106;7.028;2023-02-27T09:27:10;4.60;;;1.70;;
18336;SDS011;9294;51.106;7.028;2023-02-27T09:29:36;5.38;;;1.60;;
18336;SDS011;9294;51.106;7.028;2023-02-27T09:32:03;4.53;;;1.70;;
18336;SDS011;9294;51.106;7.028;2023-02-27T09:34:30;3.63;;;1.75;;
18336;SDS011;9294;51.106;7.028;2023-02-27T09:36:57;1.55;;;1.45;;
18336;SDS011;9294;51.106;7.028;2023-02-27T09:39:24;2.83;;;1.60;;
18336;SDS011;9294;51.106;7.028;2023-02-27T09:41:54;1.50;;;1.40;;
18336;SDS011;9294;51.106;7.028;2023-02-27T09:44:29;4.55;;;1.63;;
18336;SDS011;9294;51.106;7.028;2023-02-27T09:46:58;6.28;;;1.63;;
18336;SDS011;9294;51.106;7.028;2023-02-27T09:49:27;1.48;;;1.38;;
18336;SDS011;9294;51.106;7.028;2023-02-27T09:51:59;1.38;;;1.30;;
18336;SDS011;9294;51.106;7.028;2023-02-27T09:54:28;1.20;;;1.20;;
18336;SDS011;9294;51.106;7.028;2023-02-27T09:57:01;2.33;;;1.20;;
18336;SDS011;9294;51.106;7.028;2023-02-27T09:59:32;5.55;;;1.55;;
18336;SDS011;9294;51.106;7.028;2023-02-27T10:02:04;4.53;;;1.52;;
18336;SDS011;9294;51.106;7.028;2023-02-27T10:04:42;1.80;;;1.30;;
18336;SDS011;9294;51.106;7.028;2023-02-27T10:07:17;3.83;;;1.25;;
18336;SDS011;9294;51.106;7.028;2023-02-27T10:09:54;4.50;;;1.55;;
18336;SDS011;9294;51.106;7.028;2023-02-27T10:12:37;1.85;;;1.20;;
18336;SDS011;9294;51.106;7.028;2023-02-27T10:15:11;3.97;;;1.83;;
18336;SDS011;9294;51.106;7.028;2023-02-27T10:17:44;3.75;;;2.20;;
18336;SDS011;9294;51.106;7.028;2023-02-27T10:22:47;7.38;;;4.65;;
18336;SDS011;9294;51.106;7.028;2023-02-27T10:25:17;6.30;;;4.78;;
18336;SDS011;9294;51.106;7.028;2023-02-27T10:27:46;12.27;;;5.97;;
18336;SDS011;9294;51.106;7.028;2023-02-27T10:30:16;9.05;;;6.13;;
18336;SDS011;9294;51.106;7.028;2023-02-27T10:32:46;16.85;;;7.22;;
18336;SDS011;9294;51.106;7.028;2023-02-27T10:35:16;13.13;;;8.13;;
18336;SDS011;9294;51.106;7.028;2023-02-27T10:37:53;15.70;;;10.63;;
18336;SDS011;9294;51.106;7.028;2023-02-27T10:40:24;14.88;;;10.85;;
18336;SDS011;9294;51.106;7.028;2023-02-27T10:42:53;16.27;;;10.48;;
18336;SDS011;9294;51.106;7.028;2023-02-27T10:45:21;18.80;;;11.40;;
18336;SDS011;9294;51.106;7.028;2023-02-27T10:47:48;17.90;;;11.95;;
18336;SDS011;9294;51.106;7.028;2023-02-27T10:50:22;18.50;;;12.40;;
18336;SDS011;9294;51.106;7.028;2023-02-27T10:52:52;19.45;;;11.88;;
18336;SDS011;9294;51.106;7.028;2023-02-27T10:55:22;19.00;;;12.60;;
18336;SDS011;9294;51.106;7.028;2023-02-27T10:57:50;19.98;;;12.43;;
18336;SDS011;9294;51.106;7.028;2023-02-27T11:00:28;16.50;;;11.15;;
18336;SDS011;9294;51.106;7.028;2023-02-27T11:02:59;16.65;;;11.35;;
18336;SDS011;9294;51.106;7.028;2023-02-27T11:05:27;16.83;;;11.15;;
18336;SDS011;9294;51.106;7.028;2023-02-27T11:08:10;15.35;;;11.50;;
18336;SDS011;9294;51.106;7.028;2023-02-27T11:10:51;15.55;;;11.18;;
18336;SDS011;9294;51.106;7.028;2023-02-27T11:13:22;14.25;;;10.43;;
18336;SDS011;9294;51.106;7.028;2023-02-27T11:16:01;17.95;;;10.25;;
18336;SDS011;9294;51.106;7.028;2023-02-27T11:18:31;13.57;;;9.73;;
18336;SDS011;9294;51.106;7.028;2023-02-27T11:23:52;12.40;;;8.70;;
18336;SDS011;9294;51.106;7.028;2023-02-27T11:26:30;13.85;;;8.23;;
18336;SDS011;9294;51.106;7.028;2023-02-27T11:29:13;13.65;;;7.10;;
18336;SDS011;9294;51.106;7.028;2023-02-27T11:31:43;11.43;;;7.55;;
18336;SDS011;9294;51.106;7.028;2023-02-27T11:34:17;14.82;;;7.07;;
18336;SDS011;9294;51.106;7.028;2023-02-27T11:36:50;12.23;;;6.78;;
18336;SDS011;9294;51.106;7.028;2023-02-27T11:39:20;15.23;;;6.60;;
18336;SDS011;9294;51.106;7.028;2023-02-27T11:41:50;12.60;;;6.30;;
18336;SDS011;9294;51.106;7.028;2023-02-27T11:44:20;10.43;;;6.40;;
18336;SDS011;9294;51.106;7.028;2023-02-27T11:46:51;10.23;;;6.57;;
18336;SDS011;9294;51.106;7.028;2023-02-27T11:49:33;17.27;;;6.18;;
18336;SDS011;9294;51.106;7.028;2023-02-27T11:52:07;9.23;;;5.88;;
18336;SDS011;9294;51.106;7.028;2023-02-27T11:54:40;10.85;;;6.40;;
18336;SDS011;9294;51.106;7.028;2023-02-27T11:57:16;10.45;;;5.85;;
18336;SDS011;9294;51.106;7.028;2023-02-27T11:59:50;12.32;;;6.07;;
18336;SDS011;9294;51.106;7.028;2023-02-27T12:02:21;14.55;;;6.57;;
18336;SDS011;9294;51.106;7.028;2023-02-27T12:04:53;11.77;;;6.30;;
18336;SDS011;9294;51.106;7.028;2023-02-27T12:07:23;12.35;;;5.53;;
18336;SDS011;9294;51.106;7.028;2023-02-27T12:09:58;14.60;;;5.65;;
18336;SDS011;9294;51.106;7.028;2023-02-27T12:12:31;13.10;;;5.72;;
18336;SDS011;9294;51.106;7.028;2023-02-27T12:15:06;10.35;;;5.53;;
18336;SDS011;9294;51.106;7.028;2023-02-27T12:17:45;7.55;;;5.40;;
18336;SDS011;9294;51.106;7.028;2023-02-27T12:20:22;13.23;;;4.65;;
18336;SDS011;9294;51.106;7.028;2023-02-27T12:22:57;9.05;;;4.68;;
18336;SDS011;9294;51.106;7.028;2023-02-27T12:25:34;10.88;;;5.00;;
18336;SDS011;9294;51.106;7.028;2023-02-27T12:28:07;9.48;;;5.03;;
18336;SDS011;9294;51.106;7.028;2023-02-27T12:30:49;7.40;;;4.72;;
18336;SDS011;9294;51.106;7.028;2023-02-27T12:33:31;8.13;;;4.70;;
18336;SDS011;9294;51.106;7.028;2023-02-27T12:36:03;7.25;;;4.03;;
18336;SDS011;9294;51.106;7.028;2023-02-27T12:38:34;7.72;;;4.50;;
18336;SDS011;9294;51.106;7.028;2023-02-27T12:41:06;8.25;;;4.22;;
18336;SDS011;9294;51.106;7.028;2023-02-27T12:43:54;9.10;;;3.97;;
18336;SDS011;9294;51.106;7.028;2023-02-27T12:46:32;6.95;;;3.58;;
18336;SDS011;9294;51.106;7.028;2023-02-27T12:49:08;7.47;;;3.88;;
18336;SDS011;9294;51.106;7.028;2023-02-27T12:51:45;4.53;;;3.78;;
18336;SDS011;9294;51.106;7.028;2023-02-27T12:54:21;6.30;;;4.20;;
18336;SDS011;9294;51.106;7.028;2023-02-27T12:56:59;5.85;;;3.95;;
18336;SDS011;9294;51.106;7.028;2023-02-27T12:59:42;6.38;;;3.40;;
18336;SDS011;9294;51.106;7.028;2023-02-27T13:02:27;4.35;;;2.72;;
18336;SDS011;9294;51.106;7.028;2023-02-27T13:05:08;4.95;;;3.78;;
18336;SDS011;9294;51.106;7.028;2023-02-27T13:07:47;3.20;;;2.90;;
18336;SDS011;9294;51.106;7.028;2023-02-27T13:10:22;4.07;;;3.35;;
18336;SDS011;9294;51.106;7.028;2023-02-27T13:12:56;6.30;;;3.08;;
18336;SDS011;9294;51.106;7.028;2023-02-27T13:15:30;4.93;;;3.63;;
18336;SDS011;9294;51.106;7.028;2023-02-27T13:18:03;6.95;;;3.35;;
18336;SDS011;9294;51.106;7.028;2023-02-27T13:20:43;3.90;;;2.85;;
18336;SDS011;9294;51.106;7.028;2023-02-27T13:23:16;4.70;;;2.50;;
18336;SDS011;9294;51.106;7.028;2023-02-27T13:25:48;4.68;;;2.80;;
18336;SDS011;9294;51.106;7.028;2023-02-27T13:28:18;5.07;;;2.72;;
18336;SDS011;9294;51.106;7.028;2023-02-27T13:30:51;3.95;;;2.92;;
18336;SDS011;9294;51.106;7.028;2023-02-27T13:33:28;7.68;;;2.42;;
18336;SDS011;9294;51.106;7.028;2023-02-27T13:36:02;4.65;;;2.60;;
18336;SDS011;9294;51.106;7.028;2023-02-27T13:38:40;4.85;;;3.25;;
18336;SDS011;9294;51.106;7.028;2023-02-27T13:53:16;7.80;;;3.03;;
18336;SDS011;9294;51.106;7.028;2023-02-27T13:55:44;6.35;;;2.45;;
18336;SDS011;9294;51.106;7.028;2023-02-27T13:58:14;7.63;;;2.70;;
18336;SDS011;9294;51.106;7.028;2023-02-27T14:00:52;5.85;;;2.45;;
18336;SDS011;9294;51.106;7.028;2023-02-27T14:03:26;4.85;;;2.30;;
18336;SDS011;9294;51.106;7.028;2023-02-27T14:05:56;4.20;;;2.28;;
18336;SDS011;9294;51.106;7.028;2023-02-27T14:08:38;3.30;;;2.35;;
18336;SDS011;9294;51.106;7.028;2023-02-27T14:11:15;3.55;;;2.35;;
18336;SDS011;9294;51.106;7.028;2023-02-27T14:14:33;3.40;;;2.35;;
18336;SDS011;9294;51.106;7.028;2023-02-27T14:17:01;3.60;;;2.20;;
18336;SDS011;9294;51.106;7.028;2023-02-27T14:22:37;5.03;;;2.42;;
18336;SDS011;9294;51.106;7.028;2023-02-27T14:25:28;3.53;;;2.65;;
18336;SDS011;9294;51.106;7.028;2023-02-27T14:27:58;3.75;;;1.85;;
18336;SDS011;9294;51.106;7.028;2023-02-27T14:30:33;2.55;;;1.98;;
18336;SDS011;9294;51.106;7.028;2023-02-27T14:33:08;2.17;;;1.90;;
18336;SDS011;9294;51.106;7.028;2023-02-27T14:35:42;1.58;;;1.48;;
18336;SDS011;9294;51.106;7.028;2023-02-27T14:38:10;2.30;;;1.70;;
18336;SDS011;9294;51.106;7.028;2023-02-27T14:40:47;3.83;;;2.03;;
18336;SDS011;9294;51.106;7.028;2023-02-27T14:43:23;6.28;;;2.47;;
18336;SDS011;9294;51.106;7.028;2023-02-27T14:46:03;2.70;;;2.08;;
18336;SDS011;9294;51.106;7.028;2023-02-27T14:48:32;2.53;;;2.30;;
18336;SDS011;9294;51.106;7.028;2023-02-27T14:51:01;2.17;;;2.08;;
18336;SDS011;9294;51.106;7.028;2023-02-27T14:53:28;2.33;;;1.55;;
18336;SDS011;9294;51.106;7.028;2023-02-27T14:55:57;2.50;;;2.15;;
18336;SDS011;9294;51.106;7.028;2023-02-27T14:58:25;2.55;;;1.70;;
18336;SDS011;9294;51.106;7.028;2023-02-27T15:00:56;4.03;;;2.17;;
18336;SDS011;9294;51.106;7.028;2023-02-27T15:03:37;3.88;;;2.35;;
18336;SDS011;9294;51.106;7.028;2023-02-27T15:06:14;5.22;;;2.30;;
18336;SDS011;9294;51.106;7.028;2023-02-27T15:08:44;3.10;;;2.42;;
18336;SDS011;9294;51.106;7.028;2023-02-27T15:11:16;2.33;;;1.70;;
18336;SDS011;9294;51.106;7.028;2023-02-27T15:13:46;2.80;;;2.28;;
18336;SDS011;9294;51.106;7.028;2023-02-27T15:16:19;3.15;;;2.13;;
18336;SDS011;9294;51.106;7.028;2023-02-27T15:18:55;3.83;;;2.78;;
18336;SDS011;9294;51.106;7.028;2023-02-27T15:21:24;2.70;;;2.50;;
18336;SDS011;9294;51.106;7.028;2023-02-27T15:23:52;3.85;;;2.03;;
18336;SDS011;9294;51.106;7.028;2023-02-27T15:26:21;2.97;;;2.38;;
18336;SDS011;9294;51.106;7.028;2023-02-27T15:28:48;2.80;;;2.03;;
18336;SDS011;9294;51.106;7.028;2023-02-27T15:31:16;2.47;;;2.25;;
18336;SDS011;9294;51.106;7.028;2023-02-27T15:33:46;2.47;;;1.80;;
18336;SDS011;9294;51.106;7.028;2023-02-27T15:36:15;3.47;;;2.38;;
18336;SDS011;9294;51.106;7.028;2023-02-27T15:38:46;3.25;;;2.13;;
18336;SDS011;9294;51.106;7.028;2023-02-27T15:41:33;2.88;;;2.30;;
18336;SDS011;9294;51.106;7.028;2023-02-27T15:44:01;2.70;;;2.50;;
18336;SDS011;9294;51.106;7.028;2023-02-27T15:46:28;2.08;;;1.98;;
18336;SDS011;9294;51.106;7.028;2023-02-27T15:48:57;3.97;;;1.83;;
18336;SDS011;9294;51.106;7.028;2023-02-27T15:51:24;1.90;;;1.77;;
18336;SDS011;9294;51.106;7.028;2023-02-27T15:53:53;3.45;;;2.08;;
18336;SDS011;9294;51.106;7.028;2023-02-27T15:56:24;2.38;;;2.20;;
18336;SDS011;9294;51.106;7.028;2023-02-27T15:58:54;2.28;;;2.08;;
18336;SDS011;9294;51.106;7.028;2023-02-27T16:01:22;2.33;;;2.13;;
18336;SDS011;9294;51.106;7.028;2023-02-27T16:03:51;3.22;;;1.95;;
18336;SDS011;9294;51.106;7.028;2023-02-27T16:06:20;3.97;;;1.90;;